Byron, MI

2:33 PM EDT on April 26, 2015 (GMT -0400)
TechTrans - Braden Road | | Change Station
CLOSE
Current Station
Personal Weather Station
Location: Byron, MI
Elevation: 896 ft
Nearby Weather Stations

Elev 896 ft 42.79 °N, 84.08 °W | Updated 4 days ago

Partly Cloudy
Partly Cloudy
58 °F
Feels Like 58 °F
N
11
Wind Variable Wind from North
Gusts mph

Today
High -- | Low -- °F
--% Chance of Precip.
Yesterday
High -- | Low -- °F
Precip. -- in
6:38 AM 8:30 PM
First Quarter, 57% visible
Pressure 29.91 in
Visibility 10.0 miles
Clouds Overcast 6500 ft
Dew Point 30 °F
Humidity 33%
Rainfall in
Snow Depth Not available.
UV 3 out of 12
Pollen 10.60 out of 12
Air Quality Not available.
Flu Activity Regional
METAR KOZW 261814Z AUTO 33010G15KT 280V340 10SM OVC065 12/M02 A2991 RMK AO2 T01221024

More Conditions Fewer Conditions

Pressure 29.91 in
Visibility 10.0 miles
Clouds Overcast 6500 ft
Dew Point 30 °F
Humidity 33%
Rainfall in
Snow Depth Not available.
UV 3 out of 12
Pollen 10.60 out of 12
Air Quality Not available.
Flu Activity Regional
METAR KOZW 261814Z AUTO 33010G15KT 280V340 10SM OVC065 12/M02 A2991 RMK AO2 T01221024

More Conditions Fewer Conditions

The full scope of the disaster following a powerful 7.8-magnitude earthquake in Nepal may not come into view for days, but global charities are already sending emergency aid. Click to see how you can help.

10-Day Weather Forecast

Almanac

Astronomy

Apr. 26, 2015 Rise Set
Actual Time
Civil Twilight
Nautical Twilight
Astronomical Twilight
Moon
Length of Visible Light
Length of Day
Tomorrow will be .
, % of the Moon is Illuminated

Today's Extremes

State Highs State Lows

Community

WunderPhotos

Upload Photos

1,817,083 photos uploaded!

WunderBlogs® & News

Nearby

Air Quality

  Air Quality AQ Index Pollutant
Not available.

Snow Depth

Station Depth Elevation

Earthquake Activity

City Distance Mag. Time & Date
Minimum magnitude displayed is 2.5.

Coastal Water Temperatures

Place Temperature

Stations

Nearby Weather Stations

Station Location Temp. Windchill Dew Point Humidity Wind Precip. Elev Updated Type